sensor_id;sensor_type;location;lat;lon;timestamp;pressure;altitude;pressure_sealevel;temperature;humidity
49645;BME280;36494;50.730;-1.932;2023-07-08T00:02:09;100515.74;;;22.08;100.00
49645;BME280;36494;50.730;-1.932;2023-07-08T00:04:33;100514.94;;;22.11;100.00
49645;BME280;36494;50.730;-1.932;2023-07-08T00:06:59;100509.58;;;22.14;100.00
49645;BME280;36494;50.730;-1.932;2023-07-08T00:09:24;100505.82;;;22.13;100.00
49645;BME280;36494;50.730;-1.932;2023-07-08T00:11:50;100504.49;;;22.16;100.00
49645;BME280;36494;50.730;-1.932;2023-07-08T00:14:15;100505.32;;;22.17;100.00
49645;BME280;36494;50.730;-1.932;2023-07-08T00:16:41;100503.72;;;22.19;100.00
49645;BME280;36494;50.730;-1.932;2023-07-08T00:19:08;100496.64;;;22.16;100.00
49645;BME280;36494;50.730;-1.932;2023-07-08T00:21:32;100499.36;;;22.18;100.00
49645;BME280;36494;50.730;-1.932;2023-07-08T00:23:57;100502.42;;;22.18;100.00
49645;BME280;36494;50.730;-1.932;2023-07-08T00:26:25;100495.40;;;22.18;100.00
49645;BME280;36494;50.730;-1.932;2023-07-08T00:28:49;100498.48;;;22.19;100.00
49645;BME280;36494;50.730;-1.932;2023-07-08T00:31:14;100501.15;;;22.21;100.00
49645;BME280;36494;50.730;-1.932;2023-07-08T00:33:39;100497.32;;;22.20;100.00
49645;BME280;36494;50.730;-1.932;2023-07-08T00:36:09;100493.35;;;22.14;100.00
49645;BME280;36494;50.730;-1.932;2023-07-08T00:38:30;100497.62;;;22.22;100.00
49645;BME280;36494;50.730;-1.932;2023-07-08T00:41:08;100492.54;;;22.16;100.00
49645;BME280;36494;50.730;-1.932;2023-07-08T00:43:28;100491.90;;;22.20;100.00
49645;BME280;36494;50.730;-1.932;2023-07-08T00:45:49;100506.00;;;22.17;100.00
49645;BME280;36494;50.730;-1.932;2023-07-08T00:48:18;100507.19;;;22.15;100.00
49645;BME280;36494;50.730;-1.932;2023-07-08T00:50:37;100505.52;;;22.14;100.00
49645;BME280;36494;50.730;-1.932;2023-07-08T00:55:28;100512.95;;;21.94;100.00
49645;BME280;36494;50.730;-1.932;2023-07-08T00:57:54;100513.21;;;21.89;100.00
49645;BME280;36494;50.730;-1.932;2023-07-08T01:00:20;100517.51;;;21.90;100.00
49645;BME280;36494;50.730;-1.932;2023-07-08T01:02:48;100510.25;;;21.74;100.00
49645;BME280;36494;50.730;-1.932;2023-07-08T01:05:13;100515.77;;;21.68;100.00
49645;BME280;36494;50.730;-1.932;2023-07-08T01:07:39;100509.75;;;21.53;100.00
49645;BME280;36494;50.730;-1.932;2023-07-08T01:10:05;100503.87;;;21.49;100.00
49645;BME280;36494;50.730;-1.932;2023-07-08T01:12:31;100510.58;;;21.38;100.00
49645;BME280;36494;50.730;-1.932;2023-07-08T01:14:54;100502.80;;;21.39;100.00
49645;BME280;36494;50.730;-1.932;2023-07-08T01:17:20;100507.01;;;21.37;100.00
49645;BME280;36494;50.730;-1.932;2023-07-08T01:19:44;100507.71;;;21.28;100.00
49645;BME280;36494;50.730;-1.932;2023-07-08T01:22:10;100498.62;;;21.20;100.00
49645;BME280;36494;50.730;-1.932;2023-07-08T01:24:37;100494.40;;;21.26;100.00
49645;BME280;36494;50.730;-1.932;2023-07-08T01:27:02;100489.92;;;21.28;100.00
49645;BME280;36494;50.730;-1.932;2023-07-08T01:29:26;100478.80;;;21.15;100.00
49645;BME280;36494;50.730;-1.932;2023-07-08T01:31:52;100477.28;;;20.96;100.00
49645;BME280;36494;50.730;-1.932;2023-07-08T01:34:18;100485.14;;;20.95;100.00
49645;BME280;36494;50.730;-1.932;2023-07-08T01:36:46;100483.64;;;20.93;100.00
49645;BME280;36494;50.730;-1.932;2023-07-08T01:39:11;100491.98;;;20.90;100.00
49645;BME280;36494;50.730;-1.932;2023-07-08T01:41:34;100499.62;;;20.89;100.00
49645;BME280;36494;50.730;-1.932;2023-07-08T01:43:59;100498.16;;;20.73;100.00
49645;BME280;36494;50.730;-1.932;2023-07-08T01:46:26;100495.93;;;20.71;100.00
49645;BME280;36494;50.730;-1.932;2023-07-08T01:48:55;100502.12;;;20.67;100.00
49645;BME280;36494;50.730;-1.932;2023-07-08T01:51:16;100515.64;;;20.55;100.00
49645;BME280;36494;50.730;-1.932;2023-07-08T01:53:42;100514.59;;;20.45;100.00
49645;BME280;36494;50.730;-1.932;2023-07-08T01:56:08;100509.43;;;20.45;100.00
49645;BME280;36494;50.730;-1.932;2023-07-08T01:58:33;100513.79;;;20.35;100.00
49645;BME280;36494;50.730;-1.932;2023-07-08T02:00:58;100513.13;;;20.32;100.00
49645;BME280;36494;50.730;-1.932;2023-07-08T02:03:24;100507.90;;;20.28;100.00
49645;BME280;36494;50.730;-1.932;2023-07-08T02:05:49;100502.79;;;20.25;100.00
49645;BME280;36494;50.730;-1.932;2023-07-08T02:08:14;100511.07;;;20.23;100.00
49645;BME280;36494;50.730;-1.932;2023-07-08T02:10:42;100514.02;;;20.09;100.00
49645;BME280;36494;50.730;-1.932;2023-07-08T02:13:06;100523.51;;;20.16;100.00
49645;BME280;36494;50.730;-1.932;2023-07-08T02:15:32;100527.96;;;20.01;100.00
49645;BME280;36494;50.730;-1.932;2023-07-08T02:17:56;100529.32;;;20.01;100.00
49645;BME280;36494;50.730;-1.932;2023-07-08T02:20:23;100530.76;;;19.99;100.00
49645;BME280;36494;50.730;-1.932;2023-07-08T02:22:48;100531.68;;;20.03;100.00
49645;BME280;36494;50.730;-1.932;2023-07-08T02:25:14;100531.48;;;19.95;100.00
49645;BME280;36494;50.730;-1.932;2023-07-08T02:27:40;100530.36;;;19.86;100.00
49645;BME280;36494;50.730;-1.932;2023-07-08T02:30:06;100527.73;;;19.83;100.00
49645;BME280;36494;50.730;-1.932;2023-07-08T02:32:31;100529.39;;;19.76;100.00
49645;BME280;36494;50.730;-1.932;2023-07-08T02:34:57;100541.50;;;19.80;100.00
49645;BME280;36494;50.730;-1.932;2023-07-08T02:37:22;100552.46;;;19.78;100.00
49645;BME280;36494;50.730;-1.932;2023-07-08T02:39:48;100552.28;;;19.73;100.00
49645;BME280;36494;50.730;-1.932;2023-07-08T02:42:13;100554.36;;;19.67;100.00
49645;BME280;36494;50.730;-1.932;2023-07-08T02:44:38;100557.29;;;19.67;100.00
49645;BME280;36494;50.730;-1.932;2023-07-08T02:47:04;100552.07;;;19.56;100.00
49645;BME280;36494;50.730;-1.932;2023-07-08T02:49:30;100558.00;;;19.50;100.00
49645;BME280;36494;50.730;-1.932;2023-07-08T02:51:54;100562.32;;;19.45;100.00
49645;BME280;36494;50.730;-1.932;2023-07-08T02:54:19;100575.45;;;19.39;100.00
49645;BME280;36494;50.730;-1.932;2023-07-08T02:56:45;100573.84;;;19.36;100.00
49645;BME280;36494;50.730;-1.932;2023-07-08T02:59:10;100574.15;;;19.29;100.00
49645;BME280;36494;50.730;-1.932;2023-07-08T03:01:35;100567.41;;;19.30;100.00
49645;BME280;36494;50.730;-1.932;2023-07-08T03:04:00;100560.87;;;19.34;100.00
49645;BME280;36494;50.730;-1.932;2023-07-08T03:06:25;100566.61;;;19.32;100.00
49645;BME280;36494;50.730;-1.932;2023-07-08T03:08:51;100572.95;;;19.22;100.00
49645;BME280;36494;50.730;-1.932;2023-07-08T03:11:17;100576.12;;;19.23;100.00
49645;BME280;36494;50.730;-1.932;2023-07-08T03:13:42;100585.98;;;19.27;100.00
49645;BME280;36494;50.730;-1.932;2023-07-08T03:16:08;100592.76;;;19.25;100.00
49645;BME280;36494;50.730;-1.932;2023-07-08T03:18:33;100590.30;;;19.29;100.00
49645;BME280;36494;50.730;-1.932;2023-07-08T03:20:59;100585.84;;;19.20;100.00
49645;BME280;36494;50.730;-1.932;2023-07-08T03:23:25;100590.53;;;19.13;100.00
49645;BME280;36494;50.730;-1.932;2023-07-08T03:25:50;100579.76;;;19.13;100.00
49645;BME280;36494;50.730;-1.932;2023-07-08T03:28:15;100580.50;;;19.01;100.00
49645;BME280;36494;50.730;-1.932;2023-07-08T03:30:41;100576.11;;;19.06;100.00
49645;BME280;36494;50.730;-1.932;2023-07-08T03:33:05;100586.20;;;19.03;100.00
49645;BME280;36494;50.730;-1.932;2023-07-08T03:35:31;100596.65;;;19.14;100.00
49645;BME280;36494;50.730;-1.932;2023-07-08T03:37:56;100604.25;;;19.18;100.00
49645;BME280;36494;50.730;-1.932;2023-07-08T03:40:21;100606.56;;;19.28;100.00
49645;BME280;36494;50.730;-1.932;2023-07-08T03:42:46;100610.29;;;19.19;100.00
49645;BME280;36494;50.730;-1.932;2023-07-08T03:45:12;100620.47;;;19.24;100.00
49645;BME280;36494;50.730;-1.932;2023-07-08T03:47:37;100623.28;;;19.37;100.00
49645;BME280;36494;50.730;-1.932;2023-07-08T03:50:02;100630.68;;;19.39;100.00
49645;BME280;36494;50.730;-1.932;2023-07-08T03:52:27;100636.38;;;19.46;100.00
49645;BME280;36494;50.730;-1.932;2023-07-08T03:54:52;100634.85;;;19.50;100.00
49645;BME280;36494;50.730;-1.932;2023-07-08T03:57:18;100641.44;;;19.55;100.00
49645;BME280;36494;50.730;-1.932;2023-07-08T03:59:44;100647.42;;;19.55;100.00
49645;BME280;36494;50.730;-1.932;2023-07-08T04:02:10;100640.68;;;19.58;100.00
49645;BME280;36494;50.730;-1.932;2023-07-08T04:04:34;100643.75;;;19.63;100.00
49645;BME280;36494;50.730;-1.932;2023-07-08T04:06:59;100645.60;;;19.64;100.00
49645;BME280;36494;50.730;-1.932;2023-07-08T04:09:25;100643.65;;;19.68;100.00
49645;BME280;36494;50.730;-1.932;2023-07-08T04:11:51;100644.63;;;19.70;100.00
49645;BME280;36494;50.730;-1.932;2023-07-08T04:14:16;100641.52;;;19.72;100.00
49645;BME280;36494;50.730;-1.932;2023-07-08T04:16:47;100648.90;;;19.72;100.00
49645;BME280;36494;50.730;-1.932;2023-07-08T04:19:08;100653.60;;;19.74;100.00
49645;BME280;36494;50.730;-1.932;2023-07-08T04:21:33;100649.38;;;19.77;100.00
49645;BME280;36494;50.730;-1.932;2023-07-08T04:23:59;100651.41;;;19.77;100.00
49645;BME280;36494;50.730;-1.932;2023-07-08T04:26:24;100656.81;;;19.76;100.00
49645;BME280;36494;50.730;-1.932;2023-07-08T04:28:50;100658.09;;;19.77;100.00
49645;BME280;36494;50.730;-1.932;2023-07-08T04:31:15;100656.20;;;19.76;100.00
49645;BME280;36494;50.730;-1.932;2023-07-08T04:33:40;100657.40;;;19.77;100.00
49645;BME280;36494;50.730;-1.932;2023-07-08T04:36:11;100665.88;;;19.78;100.00
49645;BME280;36494;50.730;-1.932;2023-07-08T04:38:31;100672.71;;;19.77;100.00
49645;BME280;36494;50.730;-1.932;2023-07-08T04:40:56;100679.97;;;19.78;100.00
49645;BME280;36494;50.730;-1.932;2023-07-08T04:43:21;100686.80;;;19.72;100.00
49645;BME280;36494;50.730;-1.932;2023-07-08T04:45:48;100682.34;;;19.75;100.00
49645;BME280;36494;50.730;-1.932;2023-07-08T04:48:13;100673.65;;;19.79;100.00
49645;BME280;36494;50.730;-1.932;2023-07-08T04:50:37;100668.25;;;19.75;100.00
49645;BME280;36494;50.730;-1.932;2023-07-08T04:53:02;100666.96;;;19.73;100.00
49645;BME280;36494;50.730;-1.932;2023-07-08T04:55:28;100675.98;;;19.69;100.00
49645;BME280;36494;50.730;-1.932;2023-07-08T04:57:53;100683.22;;;19.75;100.00
49645;BME280;36494;50.730;-1.932;2023-07-08T05:00:19;100688.70;;;19.76;100.00
49645;BME280;36494;50.730;-1.932;2023-07-08T05:02:44;100688.88;;;19.77;100.00
49645;BME280;36494;50.730;-1.932;2023-07-08T05:05:10;100688.42;;;19.82;100.00
49645;BME280;36494;50.730;-1.932;2023-07-08T05:07:35;100697.38;;;19.83;100.00
49645;BME280;36494;50.730;-1.932;2023-07-08T05:10:01;100708.83;;;19.80;100.00
49645;BME280;36494;50.730;-1.932;2023-07-08T05:12:27;100714.22;;;19.78;100.00
49645;BME280;36494;50.730;-1.932;2023-07-08T05:14:52;100717.22;;;19.80;100.00
49645;BME280;36494;50.730;-1.932;2023-07-08T05:17:17;100716.41;;;19.83;100.00
49645;BME280;36494;50.730;-1.932;2023-07-08T05:19:43;100725.46;;;19.84;100.00
49645;BME280;36494;50.730;-1.932;2023-07-08T05:22:08;100728.78;;;19.85;100.00
49645;BME280;36494;50.730;-1.932;2023-07-08T05:24:33;100731.17;;;19.88;100.00
49645;BME280;36494;50.730;-1.932;2023-07-08T05:26:59;100735.54;;;19.89;100.00
49645;BME280;36494;50.730;-1.932;2023-07-08T05:29:24;100734.31;;;19.81;100.00
49645;BME280;36494;50.730;-1.932;2023-07-08T05:31:49;100734.63;;;19.86;100.00
49645;BME280;36494;50.730;-1.932;2023-07-08T05:34:15;100729.58;;;19.90;100.00
49645;BME280;36494;50.730;-1.932;2023-07-08T05:36:40;100719.91;;;19.90;100.00
49645;BME280;36494;50.730;-1.932;2023-07-08T05:39:05;100718.41;;;19.89;100.00
49645;BME280;36494;50.730;-1.932;2023-07-08T05:41:30;100722.78;;;19.88;100.00
49645;BME280;36494;50.730;-1.932;2023-07-08T05:43:56;100735.08;;;19.83;100.00
49645;BME280;36494;50.730;-1.932;2023-07-08T05:46:22;100729.18;;;19.80;100.00
49645;BME280;36494;50.730;-1.932;2023-07-08T05:48:47;100713.48;;;19.88;100.00
49645;BME280;36494;50.730;-1.932;2023-07-08T05:51:12;100714.41;;;19.89;100.00
49645;BME280;36494;50.730;-1.932;2023-07-08T05:53:37;100717.94;;;19.92;100.00
49645;BME280;36494;50.730;-1.932;2023-07-08T05:56:02;100733.90;;;19.89;100.00
49645;BME280;36494;50.730;-1.932;2023-07-08T05:58:27;100736.55;;;19.93;100.00
49645;BME280;36494;50.730;-1.932;2023-07-08T06:00:55;100751.15;;;19.95;100.00
49645;BME280;36494;50.730;-1.932;2023-07-08T06:03:18;100755.10;;;19.94;100.00
49645;BME280;36494;50.730;-1.932;2023-07-08T06:05:43;100743.33;;;19.98;100.00
49645;BME280;36494;50.730;-1.932;2023-07-08T06:08:08;100758.13;;;20.02;100.00
49645;BME280;36494;50.730;-1.932;2023-07-08T06:10:34;100752.93;;;20.05;100.00
49645;BME280;36494;50.730;-1.932;2023-07-08T06:13:00;100755.61;;;20.08;100.00
49645;BME280;36494;50.730;-1.932;2023-07-08T06:15:25;100761.41;;;20.12;100.00
49645;BME280;36494;50.730;-1.932;2023-07-08T06:17:50;100765.78;;;20.18;100.00
49645;BME280;36494;50.730;-1.932;2023-07-08T06:20:15;100780.88;;;20.24;100.00
49645;BME280;36494;50.730;-1.932;2023-07-08T06:22:41;100785.19;;;20.29;100.00
49645;BME280;36494;50.730;-1.932;2023-07-08T06:25:07;100781.29;;;20.35;100.00
49645;BME280;36494;50.730;-1.932;2023-07-08T06:27:32;100782.10;;;20.36;100.00
49645;BME280;36494;50.730;-1.932;2023-07-08T06:29:57;100777.02;;;20.37;100.00
49645;BME280;36494;50.730;-1.932;2023-07-08T06:32:23;100785.31;;;20.37;100.00
49645;BME280;36494;50.730;-1.932;2023-07-08T06:34:49;100788.57;;;20.38;100.00
49645;BME280;36494;50.730;-1.932;2023-07-08T06:37:14;100784.63;;;20.45;100.00
49645;BME280;36494;50.730;-1.932;2023-07-08T06:39:39;100780.96;;;20.51;100.00
49645;BME280;36494;50.730;-1.932;2023-07-08T06:42:06;100788.40;;;20.54;100.00
49645;BME280;36494;50.730;-1.932;2023-07-08T06:44:30;100787.34;;;20.59;100.00
49645;BME280;36494;50.730;-1.932;2023-07-08T06:46:56;100782.19;;;20.65;100.00
49645;BME280;36494;50.730;-1.932;2023-07-08T06:49:21;100788.18;;;20.72;100.00
49645;BME280;36494;50.730;-1.932;2023-07-08T06:51:46;100794.86;;;20.76;100.00
49645;BME280;36494;50.730;-1.932;2023-07-08T06:54:12;100803.45;;;20.77;100.00
49645;BME280;36494;50.730;-1.932;2023-07-08T06:56:37;100812.96;;;20.67;100.00
49645;BME280;36494;50.730;-1.932;2023-07-08T06:59:02;100799.56;;;20.70;100.00
49645;BME280;36494;50.730;-1.932;2023-07-08T07:01:28;100799.44;;;20.73;100.00
49645;BME280;36494;50.730;-1.932;2023-07-08T07:03:53;100801.15;;;20.75;100.00
49645;BME280;36494;50.730;-1.932;2023-07-08T07:06:18;100806.91;;;20.75;100.00
49645;BME280;36494;50.730;-1.932;2023-07-08T07:08:43;100803.84;;;20.78;100.00
49645;BME280;36494;50.730;-1.932;2023-07-08T07:11:09;100816.93;;;20.76;100.00
49645;BME280;36494;50.730;-1.932;2023-07-08T07:13:34;100824.15;;;20.77;100.00
49645;BME280;36494;50.730;-1.932;2023-07-08T07:15:59;100830.57;;;20.79;100.00
49645;BME280;36494;50.730;-1.932;2023-07-08T07:18:25;100846.73;;;20.72;100.00
49645;BME280;36494;50.730;-1.932;2023-07-08T07:20:52;100883.26;;;20.69;100.00
49645;BME280;36494;50.730;-1.932;2023-07-08T07:23:15;100935.39;;;20.44;100.00
49645;BME280;36494;50.730;-1.932;2023-07-08T07:25:41;100971.64;;;20.35;100.00
49645;BME280;36494;50.730;-1.932;2023-07-08T07:28:06;100980.64;;;20.28;100.00
49645;BME280;36494;50.730;-1.932;2023-07-08T07:30:31;100969.66;;;20.05;100.00
49645;BME280;36494;50.730;-1.932;2023-07-08T07:32:59;100957.18;;;20.12;100.00
49645;BME280;36494;50.730;-1.932;2023-07-08T07:35:22;100934.72;;;20.18;100.00
49645;BME280;36494;50.730;-1.932;2023-07-08T07:37:48;100929.30;;;20.27;100.00
49645;BME280;36494;50.730;-1.932;2023-07-08T07:40:13;100925.27;;;20.30;100.00
49645;BME280;36494;50.730;-1.932;2023-07-08T07:42:38;100925.27;;;20.19;100.00
49645;BME280;36494;50.730;-1.932;2023-07-08T07:45:04;100924.27;;;20.10;100.00
49645;BME280;36494;50.730;-1.932;2023-07-08T07:47:29;100910.08;;;20.18;100.00
49645;BME280;36494;50.730;-1.932;2023-07-08T07:49:54;100898.41;;;20.26;100.00
49645;BME280;36494;50.730;-1.932;2023-07-08T07:52:19;100884.81;;;20.23;100.00
49645;BME280;36494;50.730;-1.932;2023-07-08T07:54:45;100870.94;;;20.31;100.00
49645;BME280;36494;50.730;-1.932;2023-07-08T07:57:10;100864.21;;;20.42;100.00
49645;BME280;36494;50.730;-1.932;2023-07-08T07:59:36;100861.69;;;20.46;100.00
49645;BME280;36494;50.730;-1.932;2023-07-08T08:02:01;100865.39;;;20.49;100.00
49645;BME280;36494;50.730;-1.932;2023-07-08T08:04:26;100856.43;;;20.50;100.00
49645;BME280;36494;50.730;-1.932;2023-07-08T08:06:51;100857.81;;;20.53;100.00
49645;BME280;36494;50.730;-1.932;2023-07-08T08:09:17;100859.85;;;20.43;100.00
49645;BME280;36494;50.730;-1.932;2023-07-08T08:11:43;100857.31;;;20.47;100.00
49645;BME280;36494;50.730;-1.932;2023-07-08T08:14:08;100858.39;;;20.41;100.00
49645;BME280;36494;50.730;-1.932;2023-07-08T08:16:33;100862.40;;;20.28;100.00
49645;BME280;36494;50.730;-1.932;2023-07-08T08:18:59;100858.99;;;20.34;100.00
49645;BME280;36494;50.730;-1.932;2023-07-08T08:21:24;100851.53;;;20.37;100.00
49645;BME280;36494;50.730;-1.932;2023-07-08T08:23:50;100840.49;;;20.37;100.00
49645;BME280;36494;50.730;-1.932;2023-07-08T08:26:16;100826.45;;;20.39;100.00
49645;BME280;36494;50.730;-1.932;2023-07-08T08:28:41;100810.78;;;20.34;100.00
49645;BME280;36494;50.730;-1.932;2023-07-08T08:31:06;100787.93;;;20.39;100.00
49645;BME280;36494;50.730;-1.932;2023-07-08T08:33:32;100765.90;;;20.42;100.00
49645;BME280;36494;50.730;-1.932;2023-07-08T08:35:57;100763.14;;;20.45;100.00
49645;BME280;36494;50.730;-1.932;2023-07-08T08:38:23;100773.27;;;20.46;100.00
49645;BME280;36494;50.730;-1.932;2023-07-08T08:40:48;100773.97;;;20.43;100.00
49645;BME280;36494;50.730;-1.932;2023-07-08T08:43:18;100775.75;;;20.43;100.00
49645;BME280;36494;50.730;-1.932;2023-07-08T08:45:45;100771.50;;;20.48;100.00
49645;BME280;36494;50.730;-1.932;2023-07-08T08:48:10;100770.92;;;20.51;100.00
49645;BME280;36494;50.730;-1.932;2023-07-08T08:50:33;100776.11;;;20.56;100.00
49645;BME280;36494;50.730;-1.932;2023-07-08T08:52:57;100770.81;;;20.60;100.00
49645;BME280;36494;50.730;-1.932;2023-07-08T08:55:22;100766.73;;;20.58;100.00
49645;BME280;36494;50.730;-1.932;2023-07-08T08:57:52;100772.34;;;20.65;100.00
49645;BME280;36494;50.730;-1.932;2023-07-08T09:00:18;100776.57;;;20.68;100.00
49645;BME280;36494;50.730;-1.932;2023-07-08T09:02:40;100792.50;;;20.71;100.00
49645;BME280;36494;50.730;-1.932;2023-07-08T09:05:05;100801.27;;;20.66;100.00
49645;BME280;36494;50.730;-1.932;2023-07-08T09:07:30;100807.98;;;20.51;100.00
49645;BME280;36494;50.730;-1.932;2023-07-08T09:09:58;100819.04;;;20.55;100.00
49645;BME280;36494;50.730;-1.932;2023-07-08T09:12:24;100826.56;;;20.57;100.00
49645;BME280;36494;50.730;-1.932;2023-07-08T09:14:44;100850.05;;;20.27;100.00
49645;BME280;36494;50.730;-1.932;2023-07-08T09:17:19;100868.67;;;20.23;100.00
49645;BME280;36494;50.730;-1.932;2023-07-08T09:19:40;100873.35;;;20.27;100.00
49645;BME280;36494;50.730;-1.932;2023-07-08T09:22:04;100884.46;;;19.96;100.00
49645;BME280;36494;50.730;-1.932;2023-07-08T09:24:31;100897.46;;;19.96;100.00
49645;BME280;36494;50.730;-1.932;2023-07-08T09:26:51;100912.98;;;20.08;100.00
49645;BME280;36494;50.730;-1.932;2023-07-08T09:29:17;100921.96;;;19.97;100.00
49645;BME280;36494;50.730;-1.932;2023-07-08T09:31:42;100927.77;;;19.83;100.00
49645;BME280;36494;50.730;-1.932;2023-07-08T09:34:11;100926.85;;;19.96;100.00
49645;BME280;36494;50.730;-1.932;2023-07-08T09:36:32;100915.29;;;19.98;100.00
49645;BME280;36494;50.730;-1.932;2023-07-08T09:39:00;100917.06;;;20.06;100.00
49645;BME280;36494;50.730;-1.932;2023-07-08T09:41:29;100923.56;;;19.96;100.00
49645;BME280;36494;50.730;-1.932;2023-07-08T09:43:49;100930.71;;;19.97;100.00
49645;BME280;36494;50.730;-1.932;2023-07-08T09:46:15;100928.66;;;19.71;100.00
49645;BME280;36494;50.730;-1.932;2023-07-08T09:48:39;100927.66;;;19.73;100.00
49645;BME280;36494;50.730;-1.932;2023-07-08T09:51:05;100917.66;;;19.86;100.00
49645;BME280;36494;50.730;-1.932;2023-07-08T09:53:30;100914.26;;;19.87;100.00
49645;BME280;36494;50.730;-1.932;2023-07-08T09:55:57;100915.76;;;20.04;100.00
49645;BME280;36494;50.730;-1.932;2023-07-08T09:58:24;100921.50;;;20.27;100.00
49645;BME280;36494;50.730;-1.932;2023-07-08T10:00:52;100918.96;;;20.36;100.00
49645;BME280;36494;50.730;-1.932;2023-07-08T10:03:16;100918.07;;;20.67;100.00
49645;BME280;36494;50.730;-1.932;2023-07-08T10:05:40;100915.02;;;20.82;100.00
49645;BME280;36494;50.730;-1.932;2023-07-08T10:08:10;100921.03;;;21.04;100.00
49645;BME280;36494;50.730;-1.932;2023-07-08T10:10:31;100921.92;;;21.09;100.00
49645;BME280;36494;50.730;-1.932;2023-07-08T10:12:56;100918.61;;;21.29;100.00
49645;BME280;36494;50.730;-1.932;2023-07-08T10:15:22;100919.61;;;21.25;100.00
49645;BME280;36494;50.730;-1.932;2023-07-08T10:17:44;100921.79;;;21.32;100.00
49645;BME280;36494;50.730;-1.932;2023-07-08T10:20:12;100922.58;;;20.96;100.00
49645;BME280;36494;50.730;-1.932;2023-07-08T10:22:42;100938.32;;;20.73;100.00
49645;BME280;36494;50.730;-1.932;2023-07-08T10:25:13;100929.48;;;20.87;100.00
49645;BME280;36494;50.730;-1.932;2023-07-08T10:27:33;100929.23;;;20.70;100.00
49645;BME280;36494;50.730;-1.932;2023-07-08T10:29:54;100940.67;;;20.68;100.00
49645;BME280;36494;50.730;-1.932;2023-07-08T10:32:25;100948.57;;;20.63;100.00
49645;BME280;36494;50.730;-1.932;2023-07-08T10:34:47;100959.60;;;20.44;100.00
49645;BME280;36494;50.730;-1.932;2023-07-08T10:37:16;100972.59;;;20.06;100.00
49645;BME280;36494;50.730;-1.932;2023-07-08T10:39:45;100977.12;;;20.05;100.00
49645;BME280;36494;50.730;-1.932;2023-07-08T10:42:04;100980.55;;;20.24;100.00
49645;BME280;36494;50.730;-1.932;2023-07-08T10:44:28;100976.25;;;19.96;100.00
49645;BME280;36494;50.730;-1.932;2023-07-08T10:46:55;100978.38;;;20.07;100.00
49645;BME280;36494;50.730;-1.932;2023-07-08T10:49:27;100992.20;;;20.19;100.00
49645;BME280;36494;50.730;-1.932;2023-07-08T10:51:48;101002.35;;;20.06;100.00
49645;BME280;36494;50.730;-1.932;2023-07-08T10:54:19;101001.80;;;20.08;100.00
49645;BME280;36494;50.730;-1.932;2023-07-08T10:56:37;101008.85;;;20.28;100.00
49645;BME280;36494;50.730;-1.932;2023-07-08T10:59:17;101015.18;;;20.47;100.00
49645;BME280;36494;50.730;-1.932;2023-07-08T11:01:32;101009.38;;;20.21;100.00
49645;BME280;36494;50.730;-1.932;2023-07-08T11:04:00;101008.43;;;20.32;100.00
49645;BME280;36494;50.730;-1.932;2023-07-08T11:06:18;101004.69;;;20.38;100.00
49645;BME280;36494;50.730;-1.932;2023-07-08T11:08:44;101006.19;;;20.50;100.00
49645;BME280;36494;50.730;-1.932;2023-07-08T11:11:09;101010.66;;;20.25;100.00
49645;BME280;36494;50.730;-1.932;2023-07-08T11:13:32;101014.42;;;20.22;100.00
49645;BME280;36494;50.730;-1.932;2023-07-08T11:15:59;101022.49;;;20.28;100.00
49645;BME280;36494;50.730;-1.932;2023-07-08T11:18:25;101026.58;;;20.00;100.00
49645;BME280;36494;50.730;-1.932;2023-07-08T11:20:52;101029.03;;;20.05;100.00
49645;BME280;36494;50.730;-1.932;2023-07-08T11:23:19;101025.61;;;20.10;100.00
49645;BME280;36494;50.730;-1.932;2023-07-08T11:25:38;101014.52;;;20.17;100.00
49645;BME280;36494;50.730;-1.932;2023-07-08T11:28:04;101010.55;;;20.22;100.00
49645;BME280;36494;50.730;-1.932;2023-07-08T11:30:30;101002.84;;;20.39;100.00
49645;BME280;36494;50.730;-1.932;2023-07-08T11:32:58;100981.36;;;20.56;100.00
49645;BME280;36494;50.730;-1.932;2023-07-08T11:35:21;100974.19;;;20.65;100.00
49645;BME280;36494;50.730;-1.932;2023-07-08T11:37:44;100984.39;;;20.61;100.00
49645;BME280;36494;50.730;-1.932;2023-07-08T11:40:18;100992.99;;;20.65;100.00
49645;BME280;36494;50.730;-1.932;2023-07-08T11:42:39;101000.47;;;20.67;100.00
49645;BME280;36494;50.730;-1.932;2023-07-08T11:45:00;100997.73;;;20.81;100.00
49645;BME280;36494;50.730;-1.932;2023-07-08T11:47:31;100996.84;;;20.72;100.00
49645;BME280;36494;50.730;-1.932;2023-07-08T11:49:51;100998.32;;;20.72;100.00
49645;BME280;36494;50.730;-1.932;2023-07-08T11:52:18;100994.00;;;20.90;100.00
49645;BME280;36494;50.730;-1.932;2023-07-08T11:54:45;100992.82;;;20.76;100.00
49645;BME280;36494;50.730;-1.932;2023-07-08T11:59:33;101002.95;;;20.90;100.00
49645;BME280;36494;50.730;-1.932;2023-07-08T12:02:02;101006.78;;;20.98;100.00
49645;BME280;36494;50.730;-1.932;2023-07-08T12:04:26;101015.17;;;20.93;100.00
49645;BME280;36494;50.730;-1.932;2023-07-08T12:06:48;101019.71;;;20.97;100.00
49645;BME280;36494;50.730;-1.932;2023-07-08T12:09:15;101022.33;;;20.87;100.00
49645;BME280;36494;50.730;-1.932;2023-07-08T12:11:40;101026.09;;;20.75;100.00
49645;BME280;36494;50.730;-1.932;2023-07-08T12:14:04;101023.12;;;20.64;100.00
49645;BME280;36494;50.730;-1.932;2023-07-08T12:16:31;101014.33;;;20.63;100.00
49645;BME280;36494;50.730;-1.932;2023-07-08T12:18:55;101014.99;;;20.60;100.00
49645;BME280;36494;50.730;-1.932;2023-07-08T12:21:22;101020.52;;;20.62;100.00
49645;BME280;36494;50.730;-1.932;2023-07-08T12:23:47;101021.46;;;20.32;100.00
49645;BME280;36494;50.730;-1.932;2023-07-08T12:26:11;101025.17;;;20.12;100.00